sensor_id;sensor_type;location;lat;lon;timestamp;temperature;humidity
21722;DHT22;11023;48.274;7.794;2022-08-01T00:00:42;21.30;99.90
21722;DHT22;11023;48.274;7.794;2022-08-01T00:03:08;21.30;99.90
21722;DHT22;11023;48.274;7.794;2022-08-01T00:05:34;21.20;99.90
21722;DHT22;11023;48.274;7.794;2022-08-01T00:07:59;21.10;99.90
21722;DHT22;11023;48.274;7.794;2022-08-01T00:10:26;21.00;99.90
21722;DHT22;11023;48.274;7.794;2022-08-01T00:12:52;20.90;99.90
21722;DHT22;11023;48.274;7.794;2022-08-01T00:15:18;20.80;99.90
21722;DHT22;11023;48.274;7.794;2022-08-01T00:17:44;20.70;99.90
21722;DHT22;11023;48.274;7.794;2022-08-01T00:20:14;20.70;99.90
21722;DHT22;11023;48.274;7.794;2022-08-01T00:22:39;20.60;99.90
21722;DHT22;11023;48.274;7.794;2022-08-01T00:25:06;20.60;99.90
21722;DHT22;11023;48.274;7.794;2022-08-01T00:27:32;20.60;99.90
21722;DHT22;11023;48.274;7.794;2022-08-01T00:29:58;20.60;99.90
21722;DHT22;11023;48.274;7.794;2022-08-01T00:32:24;20.60;99.90
21722;DHT22;11023;48.274;7.794;2022-08-01T00:34:49;20.60;99.90
21722;DHT22;11023;48.274;7.794;2022-08-01T00:37:15;20.50;99.90
21722;DHT22;11023;48.274;7.794;2022-08-01T00:39:40;20.50;99.90
21722;DHT22;11023;48.274;7.794;2022-08-01T00:42:11;20.40;99.90
21722;DHT22;11023;48.274;7.794;2022-08-01T00:44:37;20.30;99.90
21722;DHT22;11023;48.274;7.794;2022-08-01T00:47:04;20.30;99.90
21722;DHT22;11023;48.274;7.794;2022-08-01T00:49:29;20.20;99.90
21722;DHT22;11023;48.274;7.794;2022-08-01T00:51:56;20.20;99.90
21722;DHT22;11023;48.274;7.794;2022-08-01T00:54:25;20.20;99.90
21722;DHT22;11023;48.274;7.794;2022-08-01T00:56:51;20.10;99.90
21722;DHT22;11023;48.274;7.794;2022-08-01T00:59:18;20.10;99.90
21722;DHT22;11023;48.274;7.794;2022-08-01T01:01:44;20.10;99.90
21722;DHT22;11023;48.274;7.794;2022-08-01T01:04:10;20.10;99.90
21722;DHT22;11023;48.274;7.794;2022-08-01T01:11:47;19.90;99.90
21722;DHT22;11023;48.274;7.794;2022-08-01T01:14:33;19.80;99.90
21722;DHT22;11023;48.274;7.794;2022-08-01T01:17:03;19.70;99.90
21722;DHT22;11023;48.274;7.794;2022-08-01T01:19:31;19.70;99.90
21722;DHT22;11023;48.274;7.794;2022-08-01T01:22:27;19.70;99.90
21722;DHT22;11023;48.274;7.794;2022-08-01T01:31:02;19.70;99.90
21722;DHT22;11023;48.274;7.794;2022-08-01T01:33:29;19.70;99.90
21722;DHT22;11023;48.274;7.794;2022-08-01T01:36:05;19.70;99.90
21722;DHT22;11023;48.274;7.794;2022-08-01T01:38:39;19.70;99.90
21722;DHT22;11023;48.274;7.794;2022-08-01T01:41:09;19.60;99.90
21722;DHT22;11023;48.274;7.794;2022-08-01T01:43:37;19.60;99.90
21722;DHT22;11023;48.274;7.794;2022-08-01T01:46:05;19.50;99.90
21722;DHT22;11023;48.274;7.794;2022-08-01T01:48:33;19.50;99.90
21722;DHT22;11023;48.274;7.794;2022-08-01T01:51:00;19.50;99.90
21722;DHT22;11023;48.274;7.794;2022-08-01T01:53:28;19.50;99.90
21722;DHT22;11023;48.274;7.794;2022-08-01T01:55:57;19.40;99.90
21722;DHT22;11023;48.274;7.794;2022-08-01T01:58:24;19.40;99.90
21722;DHT22;11023;48.274;7.794;2022-08-01T02:00:52;19.30;99.90
21722;DHT22;11023;48.274;7.794;2022-08-01T02:03:20;19.40;99.90
21722;DHT22;11023;48.274;7.794;2022-08-01T02:05:48;19.30;99.90
21722;DHT22;11023;48.274;7.794;2022-08-01T02:08:15;19.30;99.90
21722;DHT22;11023;48.274;7.794;2022-08-01T02:10:42;19.30;99.90
21722;DHT22;11023;48.274;7.794;2022-08-01T02:13:30;19.20;99.90
21722;DHT22;11023;48.274;7.794;2022-08-01T02:15:57;19.10;99.90
21722;DHT22;11023;48.274;7.794;2022-08-01T02:18:23;19.10;99.90
21722;DHT22;11023;48.274;7.794;2022-08-01T02:20:51;19.10;99.90
21722;DHT22;11023;48.274;7.794;2022-08-01T02:23:18;19.10;99.90
21722;DHT22;11023;48.274;7.794;2022-08-01T02:25:48;19.00;99.90
21722;DHT22;11023;48.274;7.794;2022-08-01T02:28:21;19.10;99.90
21722;DHT22;11023;48.274;7.794;2022-08-01T02:30:53;19.10;99.90
21722;DHT22;11023;48.274;7.794;2022-08-01T02:33:23;19.10;99.90
21722;DHT22;11023;48.274;7.794;2022-08-01T02:35:52;19.00;99.90
21722;DHT22;11023;48.274;7.794;2022-08-01T02:38:23;19.10;99.90
21722;DHT22;11023;48.274;7.794;2022-08-01T02:40:52;19.00;99.90
21722;DHT22;11023;48.274;7.794;2022-08-01T02:43:21;19.00;99.90
21722;DHT22;11023;48.274;7.794;2022-08-01T02:45:53;18.90;99.90
21722;DHT22;11023;48.274;7.794;2022-08-01T02:48:20;18.90;99.90
21722;DHT22;11023;48.274;7.794;2022-08-01T02:50:48;18.90;99.90
21722;DHT22;11023;48.274;7.794;2022-08-01T02:53:16;18.80;99.90
21722;DHT22;11023;48.274;7.794;2022-08-01T02:55:44;18.90;99.90
21722;DHT22;11023;48.274;7.794;2022-08-01T02:58:14;18.80;99.90
21722;DHT22;11023;48.274;7.794;2022-08-01T03:00:42;18.80;99.90
21722;DHT22;11023;48.274;7.794;2022-08-01T03:03:09;18.70;99.90
21722;DHT22;11023;48.274;7.794;2022-08-01T03:05:35;18.70;99.90
21722;DHT22;11023;48.274;7.794;2022-08-01T03:08:03;18.70;99.90
21722;DHT22;11023;48.274;7.794;2022-08-01T03:10:31;18.70;99.90
21722;DHT22;11023;48.274;7.794;2022-08-01T03:12:59;18.70;99.90
21722;DHT22;11023;48.274;7.794;2022-08-01T03:15:26;18.70;99.90
21722;DHT22;11023;48.274;7.794;2022-08-01T03:17:54;18.70;99.90
21722;DHT22;11023;48.274;7.794;2022-08-01T03:20:21;18.70;99.90
21722;DHT22;11023;48.274;7.794;2022-08-01T03:22:50;18.70;99.90
21722;DHT22;11023;48.274;7.794;2022-08-01T03:25:18;18.70;99.90
21722;DHT22;11023;48.274;7.794;2022-08-01T03:27:50;18.80;99.90
21722;DHT22;11023;48.274;7.794;2022-08-01T03:30:17;18.70;99.90
21722;DHT22;11023;48.274;7.794;2022-08-01T03:32:43;18.70;99.90
21722;DHT22;11023;48.274;7.794;2022-08-01T03:35:09;18.80;99.90
21722;DHT22;11023;48.274;7.794;2022-08-01T03:37:40;18.70;99.90
21722;DHT22;11023;48.274;7.794;2022-08-01T03:40:38;18.60;99.90
21722;DHT22;11023;48.274;7.794;2022-08-01T03:43:18;18.60;99.90
21722;DHT22;11023;48.274;7.794;2022-08-01T03:45:48;18.50;99.90
21722;DHT22;11023;48.274;7.794;2022-08-01T03:48:18;18.40;99.90
21722;DHT22;11023;48.274;7.794;2022-08-01T03:50:47;18.40;99.90
21722;DHT22;11023;48.274;7.794;2022-08-01T03:53:14;18.40;99.90
21722;DHT22;11023;48.274;7.794;2022-08-01T03:55:42;18.40;99.90
21722;DHT22;11023;48.274;7.794;2022-08-01T03:58:09;18.40;99.90
21722;DHT22;11023;48.274;7.794;2022-08-01T04:00:37;18.40;99.90
21722;DHT22;11023;48.274;7.794;2022-08-01T04:03:10;18.40;99.90
21722;DHT22;11023;48.274;7.794;2022-08-01T04:05:41;18.30;99.90
21722;DHT22;11023;48.274;7.794;2022-08-01T04:08:07;18.20;99.90
21722;DHT22;11023;48.274;7.794;2022-08-01T04:10:33;18.20;99.90
21722;DHT22;11023;48.274;7.794;2022-08-01T04:12:59;18.20;99.90
21722;DHT22;11023;48.274;7.794;2022-08-01T04:15:24;18.20;99.90
21722;DHT22;11023;48.274;7.794;2022-08-01T04:17:50;18.20;99.90
21722;DHT22;11023;48.274;7.794;2022-08-01T04:20:16;18.20;99.90
21722;DHT22;11023;48.274;7.794;2022-08-01T04:22:42;18.30;99.90
21722;DHT22;11023;48.274;7.794;2022-08-01T04:25:12;18.30;99.90
21722;DHT22;11023;48.274;7.794;2022-08-01T04:27:43;18.30;99.90
21722;DHT22;11023;48.274;7.794;2022-08-01T04:30:11;18.30;99.90
21722;DHT22;11023;48.274;7.794;2022-08-01T04:32:38;18.40;99.90
21722;DHT22;11023;48.274;7.794;2022-08-01T04:35:07;18.40;99.90
21722;DHT22;11023;48.274;7.794;2022-08-01T04:37:35;18.40;99.90
21722;DHT22;11023;48.274;7.794;2022-08-01T04:40:04;18.50;99.90
21722;DHT22;11023;48.274;7.794;2022-08-01T04:42:31;18.50;99.90
21722;DHT22;11023;48.274;7.794;2022-08-01T04:44:58;18.50;99.90
21722;DHT22;11023;48.274;7.794;2022-08-01T04:47:25;18.60;99.90
21722;DHT22;11023;48.274;7.794;2022-08-01T04:49:51;18.50;99.90
21722;DHT22;11023;48.274;7.794;2022-08-01T04:52:18;18.60;99.90
21722;DHT22;11023;48.274;7.794;2022-08-01T04:54:43;18.60;99.90
21722;DHT22;11023;48.274;7.794;2022-08-01T04:57:09;18.60;99.90
21722;DHT22;11023;48.274;7.794;2022-08-01T04:59:37;18.70;99.90
21722;DHT22;11023;48.274;7.794;2022-08-01T05:02:08;18.60;99.90
21722;DHT22;11023;48.274;7.794;2022-08-01T05:04:35;18.70;99.90
21722;DHT22;11023;48.274;7.794;2022-08-01T05:07:01;18.70;99.90
21722;DHT22;11023;48.274;7.794;2022-08-01T05:09:27;18.60;99.90
21722;DHT22;11023;48.274;7.794;2022-08-01T05:11:53;18.70;99.90
21722;DHT22;11023;48.274;7.794;2022-08-01T05:14:18;18.70;99.90
21722;DHT22;11023;48.274;7.794;2022-08-01T05:16:45;18.80;99.90
21722;DHT22;11023;48.274;7.794;2022-08-01T05:19:11;18.80;99.90
21722;DHT22;11023;48.274;7.794;2022-08-01T05:21:37;18.80;99.90
21722;DHT22;11023;48.274;7.794;2022-08-01T05:24:06;18.90;99.90
21722;DHT22;11023;48.274;7.794;2022-08-01T05:26:32;19.00;99.90
21722;DHT22;11023;48.274;7.794;2022-08-01T05:28:59;19.00;99.90
21722;DHT22;11023;48.274;7.794;2022-08-01T05:31:24;19.10;99.90
21722;DHT22;11023;48.274;7.794;2022-08-01T05:33:50;19.10;99.90
21722;DHT22;11023;48.274;7.794;2022-08-01T05:36:19;19.20;99.90
21722;DHT22;11023;48.274;7.794;2022-08-01T05:38:45;19.30;99.90
21722;DHT22;11023;48.274;7.794;2022-08-01T05:41:10;19.30;99.90
21722;DHT22;11023;48.274;7.794;2022-08-01T05:43:36;19.30;99.90
21722;DHT22;11023;48.274;7.794;2022-08-01T05:46:02;19.40;99.90
21722;DHT22;11023;48.274;7.794;2022-08-01T05:48:28;19.40;99.90
21722;DHT22;11023;48.274;7.794;2022-08-01T05:50:54;19.50;99.90
21722;DHT22;11023;48.274;7.794;2022-08-01T05:53:20;19.60;99.90
21722;DHT22;11023;48.274;7.794;2022-08-01T05:55:47;19.60;99.90
21722;DHT22;11023;48.274;7.794;2022-08-01T05:58:12;19.70;99.90
21722;DHT22;11023;48.274;7.794;2022-08-01T06:00:39;19.80;99.90
21722;DHT22;11023;48.274;7.794;2022-08-01T06:03:05;19.90;99.90
21722;DHT22;11023;48.274;7.794;2022-08-01T06:05:32;20.00;99.90
21722;DHT22;11023;48.274;7.794;2022-08-01T06:07:57;20.00;99.90
21722;DHT22;11023;48.274;7.794;2022-08-01T06:10:23;20.10;99.90
21722;DHT22;11023;48.274;7.794;2022-08-01T06:12:49;20.20;99.90
21722;DHT22;11023;48.274;7.794;2022-08-01T06:15:15;20.20;99.90
21722;DHT22;11023;48.274;7.794;2022-08-01T06:17:40;20.30;99.90
21722;DHT22;11023;48.274;7.794;2022-08-01T06:20:07;20.40;99.90
21722;DHT22;11023;48.274;7.794;2022-08-01T06:22:33;20.40;99.90
21722;DHT22;11023;48.274;7.794;2022-08-01T06:24:59;20.50;99.90
21722;DHT22;11023;48.274;7.794;2022-08-01T06:27:25;20.50;99.90
21722;DHT22;11023;48.274;7.794;2022-08-01T06:29:51;20.60;99.90
21722;DHT22;11023;48.274;7.794;2022-08-01T06:32:19;20.70;99.90
21722;DHT22;11023;48.274;7.794;2022-08-01T06:34:46;20.70;99.90
21722;DHT22;11023;48.274;7.794;2022-08-01T06:37:12;20.90;99.90
21722;DHT22;11023;48.274;7.794;2022-08-01T06:39:39;20.90;99.90
21722;DHT22;11023;48.274;7.794;2022-08-01T06:42:05;21.00;99.90
21722;DHT22;11023;48.274;7.794;2022-08-01T06:44:31;21.10;99.90
21722;DHT22;11023;48.274;7.794;2022-08-01T06:46:56;21.20;99.90
21722;DHT22;11023;48.274;7.794;2022-08-01T06:49:24;21.40;99.90
21722;DHT22;11023;48.274;7.794;2022-08-01T06:51:50;21.40;99.90
21722;DHT22;11023;48.274;7.794;2022-08-01T06:54:17;21.50;99.90
21722;DHT22;11023;48.274;7.794;2022-08-01T06:56:43;21.60;99.90
21722;DHT22;11023;48.274;7.794;2022-08-01T06:59:09;21.70;99.90
21722;DHT22;11023;48.274;7.794;2022-08-01T07:01:35;21.80;99.90
21722;DHT22;11023;48.274;7.794;2022-08-01T07:04:02;21.90;99.90
21722;DHT22;11023;48.274;7.794;2022-08-01T07:06:28;22.00;99.90
21722;DHT22;11023;48.274;7.794;2022-08-01T07:08:55;22.10;99.90
21722;DHT22;11023;48.274;7.794;2022-08-01T07:11:23;22.20;99.90
21722;DHT22;11023;48.274;7.794;2022-08-01T07:13:49;22.30;99.90
21722;DHT22;11023;48.274;7.794;2022-08-01T07:16:15;22.40;99.90
21722;DHT22;11023;48.274;7.794;2022-08-01T07:18:42;22.40;99.90
21722;DHT22;11023;48.274;7.794;2022-08-01T07:21:07;22.50;99.90
21722;DHT22;11023;48.274;7.794;2022-08-01T07:23:33;22.70;99.90
21722;DHT22;11023;48.274;7.794;2022-08-01T07:25:59;22.80;99.90
21722;DHT22;11023;48.274;7.794;2022-08-01T07:28:27;23.00;99.90
21722;DHT22;11023;48.274;7.794;2022-08-01T07:30:53;23.10;99.90
21722;DHT22;11023;48.274;7.794;2022-08-01T07:33:18;23.10;99.90
21722;DHT22;11023;48.274;7.794;2022-08-01T07:35:44;23.20;99.90
21722;DHT22;11023;48.274;7.794;2022-08-01T07:38:10;23.40;99.90
21722;DHT22;11023;48.274;7.794;2022-08-01T07:40:36;23.50;99.90
21722;DHT22;11023;48.274;7.794;2022-08-01T07:43:02;23.60;99.90
21722;DHT22;11023;48.274;7.794;2022-08-01T07:45:28;23.70;99.90
21722;DHT22;11023;48.274;7.794;2022-08-01T07:47:53;23.80;99.90
21722;DHT22;11023;48.274;7.794;2022-08-01T07:50:19;23.80;99.90
21722;DHT22;11023;48.274;7.794;2022-08-01T07:52:45;24.00;99.90
21722;DHT22;11023;48.274;7.794;2022-08-01T07:55:11;24.10;99.90
21722;DHT22;11023;48.274;7.794;2022-08-01T07:57:37;24.20;99.90
21722;DHT22;11023;48.274;7.794;2022-08-01T08:00:05;24.30;99.90
21722;DHT22;11023;48.274;7.794;2022-08-01T08:02:31;24.40;99.90
21722;DHT22;11023;48.274;7.794;2022-08-01T08:04:57;24.50;99.90
21722;DHT22;11023;48.274;7.794;2022-08-01T08:07:23;24.50;99.90
21722;DHT22;11023;48.274;7.794;2022-08-01T08:09:49;24.60;99.90
21722;DHT22;11023;48.274;7.794;2022-08-01T08:12:14;24.70;99.90
21722;DHT22;11023;48.274;7.794;2022-08-01T08:14:40;24.70;99.90
21722;DHT22;11023;48.274;7.794;2022-08-01T08:17:06;24.80;99.90
21722;DHT22;11023;48.274;7.794;2022-08-01T08:19:32;24.80;99.90
21722;DHT22;11023;48.274;7.794;2022-08-01T08:21:59;24.80;99.90
21722;DHT22;11023;48.274;7.794;2022-08-01T08:24:26;24.80;99.90
21722;DHT22;11023;48.274;7.794;2022-08-01T08:26:54;24.90;99.90
21722;DHT22;11023;48.274;7.794;2022-08-01T08:29:21;24.90;99.90
21722;DHT22;11023;48.274;7.794;2022-08-01T08:31:48;24.90;99.90
21722;DHT22;11023;48.274;7.794;2022-08-01T08:34:14;25.10;99.90
21722;DHT22;11023;48.274;7.794;2022-08-01T08:36:41;25.30;99.90
21722;DHT22;11023;48.274;7.794;2022-08-01T08:39:07;25.30;99.90
21722;DHT22;11023;48.274;7.794;2022-08-01T08:41:33;25.40;99.90
21722;DHT22;11023;48.274;7.794;2022-08-01T08:44:07;25.40;99.90
21722;DHT22;11023;48.274;7.794;2022-08-01T08:46:33;25.40;99.90
21722;DHT22;11023;48.274;7.794;2022-08-01T08:49:02;25.60;99.90
21722;DHT22;11023;48.274;7.794;2022-08-01T08:51:30;25.70;99.90
21722;DHT22;11023;48.274;7.794;2022-08-01T08:53:58;25.80;99.90
21722;DHT22;11023;48.274;7.794;2022-08-01T08:56:26;25.90;99.90
21722;DHT22;11023;48.274;7.794;2022-08-01T08:58:55;26.00;99.90
21722;DHT22;11023;48.274;7.794;2022-08-01T09:01:22;26.00;99.90
21722;DHT22;11023;48.274;7.794;2022-08-01T09:03:48;26.00;99.90
21722;DHT22;11023;48.274;7.794;2022-08-01T09:06:14;26.00;99.90
21722;DHT22;11023;48.274;7.794;2022-08-01T09:08:40;26.00;99.90
21722;DHT22;11023;48.274;7.794;2022-08-01T09:11:05;26.10;99.90
21722;DHT22;11023;48.274;7.794;2022-08-01T09:13:31;26.10;99.90
21722;DHT22;11023;48.274;7.794;2022-08-01T09:15:57;26.20;99.90
21722;DHT22;11023;48.274;7.794;2022-08-01T09:18:34;26.40;99.90
21722;DHT22;11023;48.274;7.794;2022-08-01T09:21:06;26.40;99.90
21722;DHT22;11023;48.274;7.794;2022-08-01T09:23:37;26.40;99.90
21722;DHT22;11023;48.274;7.794;2022-08-01T09:26:09;26.50;99.90
21722;DHT22;11023;48.274;7.794;2022-08-01T09:28:35;26.60;99.90
21722;DHT22;11023;48.274;7.794;2022-08-01T09:31:13;26.70;99.90
21722;DHT22;11023;48.274;7.794;2022-08-01T09:33:56;26.90;99.90
21722;DHT22;11023;48.274;7.794;2022-08-01T09:36:27;27.00;99.90
21722;DHT22;11023;48.274;7.794;2022-08-01T09:38:54;27.30;99.90
21722;DHT22;11023;48.274;7.794;2022-08-01T09:41:30;27.40;99.90
21722;DHT22;11023;48.274;7.794;2022-08-01T09:43:56;27.50;99.90
21722;DHT22;11023;48.274;7.794;2022-08-01T09:46:22;27.70;99.90
21722;DHT22;11023;48.274;7.794;2022-08-01T09:49:04;27.80;99.90
21722;DHT22;11023;48.274;7.794;2022-08-01T09:51:33;27.80;99.90
21722;DHT22;11023;48.274;7.794;2022-08-01T09:54:00;27.90;99.90
21722;DHT22;11023;48.274;7.794;2022-08-01T09:56:26;27.90;99.90
21722;DHT22;11023;48.274;7.794;2022-08-01T09:59:00;27.90;99.90
21722;DHT22;11023;48.274;7.794;2022-08-01T10:01:27;28.00;99.90
21722;DHT22;11023;48.274;7.794;2022-08-01T10:04:05;28.30;99.90
21722;DHT22;11023;48.274;7.794;2022-08-01T10:06:30;28.50;99.90
21722;DHT22;11023;48.274;7.794;2022-08-01T10:08:57;28.50;99.90
21722;DHT22;11023;48.274;7.794;2022-08-01T10:11:23;28.50;99.90
21722;DHT22;11023;48.274;7.794;2022-08-01T10:13:49;28.50;99.90
21722;DHT22;11023;48.274;7.794;2022-08-01T10:16:15;28.50;99.90
21722;DHT22;11023;48.274;7.794;2022-08-01T10:18:41;28.40;99.90
21722;DHT22;11023;48.274;7.794;2022-08-01T10:21:09;28.40;99.90
21722;DHT22;11023;48.274;7.794;2022-08-01T10:23:37;28.50;99.90
21722;DHT22;11023;48.274;7.794;2022-08-01T10:26:05;28.40;99.90
21722;DHT22;11023;48.274;7.794;2022-08-01T10:28:31;28.50;99.90
21722;DHT22;11023;48.274;7.794;2022-08-01T10:31:00;28.50;99.90
21722;DHT22;11023;48.274;7.794;2022-08-01T10:33:29;28.50;99.90
21722;DHT22;11023;48.274;7.794;2022-08-01T10:35:55;28.50;99.90
21722;DHT22;11023;48.274;7.794;2022-08-01T10:38:21;28.60;99.90
21722;DHT22;11023;48.274;7.794;2022-08-01T10:40:48;28.90;99.90
21722;DHT22;11023;48.274;7.794;2022-08-01T10:43:16;29.10;99.90
21722;DHT22;11023;48.274;7.794;2022-08-01T10:45:43;29.30;99.90
21722;DHT22;11023;48.274;7.794;2022-08-01T10:51:02;29.30;99.90
21722;DHT22;11023;48.274;7.794;2022-08-01T10:53:29;29.50;99.90
21722;DHT22;11023;48.274;7.794;2022-08-01T11:01:25;30.00;99.90
21722;DHT22;11023;48.274;7.794;2022-08-01T11:09:26;30.10;99.90
21722;DHT22;11023;48.274;7.794;2022-08-01T11:12:06;30.20;99.90
21722;DHT22;11023;48.274;7.794;2022-08-01T11:17:40;29.70;99.90
21722;DHT22;11023;48.274;7.794;2022-08-01T11:20:17;29.50;99.90
21722;DHT22;11023;48.274;7.794;2022-08-01T11:26:10;29.40;99.90
21722;DHT22;11023;48.274;7.794;2022-08-01T11:28:19;29.50;99.90
21722;DHT22;11023;48.274;7.794;2022-08-01T11:30:53;29.70;99.90
21722;DHT22;11023;48.274;7.794;2022-08-01T11:39:10;29.90;99.90
21722;DHT22;11023;48.274;7.794;2022-08-01T11:41:35;30.10;99.90
21722;DHT22;11023;48.274;7.794;2022-08-01T11:44:04;30.20;99.90
21722;DHT22;11023;48.274;7.794;2022-08-01T11:57:23;30.80;99.90
21722;DHT22;11023;48.274;7.794;2022-08-01T11:59:52;30.90;99.90
21722;DHT22;11023;48.274;7.794;2022-08-01T12:02:25;30.70;99.90
21722;DHT22;11023;48.274;7.794;2022-08-01T12:05:01;30.80;99.90
21722;DHT22;11023;48.274;7.794;2022-08-01T12:07:31;30.90;99.90
21722;DHT22;11023;48.274;7.794;2022-08-01T12:12:31;31.00;99.90
21722;DHT22;11023;48.274;7.794;2022-08-01T12:15:05;30.90;99.90
21722;DHT22;11023;48.274;7.794;2022-08-01T12:17:39;30.90;99.90
21722;DHT22;11023;48.274;7.794;2022-08-01T12:20:08;30.80;99.90
21722;DHT22;11023;48.274;7.794;2022-08-01T12:22:35;30.90;99.90
21722;DHT22;11023;48.274;7.794;2022-08-01T12:25:19;30.90;99.90
21722;DHT22;11023;48.274;7.794;2022-08-01T12:27:46;31.10;99.90
21722;DHT22;11023;48.274;7.794;2022-08-01T12:30:16;31.30;99.90
21722;DHT22;11023;48.274;7.794;2022-08-01T12:32:45;31.30;99.90
21722;DHT22;11023;48.274;7.794;2022-08-01T12:35:13;31.10;99.90
21722;DHT22;11023;48.274;7.794;2022-08-01T12:37:44;31.20;99.90
21722;DHT22;11023;48.274;7.794;2022-08-01T12:40:18;31.30;99.90
21722;DHT22;11023;48.274;7.794;2022-08-01T12:42:56;31.50;99.90
21722;DHT22;11023;48.274;7.794;2022-08-01T12:45:42;31.70;99.90
21722;DHT22;11023;48.274;7.794;2022-08-01T12:48:12;31.70;99.90
21722;DHT22;11023;48.274;7.794;2022-08-01T12:50:41;31.70;99.90
21722;DHT22;11023;48.274;7.794;2022-08-01T12:53:08;31.50;99.90
21722;DHT22;11023;48.274;7.794;2022-08-01T12:55:44;31.20;99.90
21722;DHT22;11023;48.274;7.794;2022-08-01T12:58:12;31.20;99.90
21722;DHT22;11023;48.274;7.794;2022-08-01T13:00:39;31.40;99.90
21722;DHT22;11023;48.274;7.794;2022-08-01T13:03:13;31.10;99.90
21722;DHT22;11023;48.274;7.794;2022-08-01T13:08:21;32.00;99.90
21722;DHT22;11023;48.274;7.794;2022-08-01T13:10:48;32.40;99.90
21722;DHT22;11023;48.274;7.794;2022-08-01T13:13:16;32.70;99.90
21722;DHT22;11023;48.274;7.794;2022-08-01T13:15:43;32.70;99.90
21722;DHT22;11023;48.274;7.794;2022-08-01T13:20:48;33.50;99.90
21722;DHT22;11023;48.274;7.794;2022-08-01T13:23:16;33.90;99.90
21722;DHT22;11023;48.274;7.794;2022-08-01T13:25:52;33.90;99.90
21722;DHT22;11023;48.274;7.794;2022-08-01T13:28:23;33.90;99.90
21722;DHT22;11023;48.274;7.794;2022-08-01T13:30:57;33.90;99.90
21722;DHT22;11023;48.274;7.794;2022-08-01T13:33:25;34.10;99.90
21722;DHT22;11023;48.274;7.794;2022-08-01T13:35:52;33.80;99.90
21722;DHT22;11023;48.274;7.794;2022-08-01T13:38:19;33.40;99.90
21722;DHT22;11023;48.274;7.794;2022-08-01T13:40:45;33.20;99.90
21722;DHT22;11023;48.274;7.794;2022-08-01T13:43:10;33.00;99.90
21722;DHT22;11023;48.274;7.794;2022-08-01T13:45:36;33.20;99.90
21722;DHT22;11023;48.274;7.794;2022-08-01T13:48:04;32.90;99.90
21722;DHT22;11023;48.274;7.794;2022-08-01T13:50:30;32.90;99.90
21722;DHT22;11023;48.274;7.794;2022-08-01T13:52:56;32.40;99.90
21722;DHT22;11023;48.274;7.794;2022-08-01T13:55:21;32.30;99.90
21722;DHT22;11023;48.274;7.794;2022-08-01T13:57:47;32.20;99.90
21722;DHT22;11023;48.274;7.794;2022-08-01T14:00:13;31.80;99.90
21722;DHT22;11023;48.274;7.794;2022-08-01T14:02:39;31.30;99.90
21722;DHT22;11023;48.274;7.794;2022-08-01T14:05:05;31.00;99.90
21722;DHT22;11023;48.274;7.794;2022-08-01T14:07:30;30.90;99.90
21722;DHT22;11023;48.274;7.794;2022-08-01T14:09:56;30.60;99.90
21722;DHT22;11023;48.274;7.794;2022-08-01T14:12:22;30.60;99.90
21722;DHT22;11023;48.274;7.794;2022-08-01T14:14:48;30.70;99.90
21722;DHT22;11023;48.274;7.794;2022-08-01T14:17:14;30.80;99.90
21722;DHT22;11023;48.274;7.794;2022-08-01T14:19:40;31.00;99.90
21722;DHT22;11023;48.274;7.794;2022-08-01T14:22:06;30.90;99.90
21722;DHT22;11023;48.274;7.794;2022-08-01T14:24:31;31.10;99.90
21722;DHT22;11023;48.274;7.794;2022-08-01T14:26:57;31.30;99.90
21722;DHT22;11023;48.274;7.794;2022-08-01T14:29:22;31.30;99.90
21722;DHT22;11023;48.274;7.794;2022-08-01T14:31:48;31.20;99.90
21722;DHT22;11023;48.274;7.794;2022-08-01T14:34:14;31.10;99.90
21722;DHT22;11023;48.274;7.794;2022-08-01T14:36:40;31.00;99.90
21722;DHT22;11023;48.274;7.794;2022-08-01T14:39:06;30.90;99.90
21722;DHT22;11023;48.274;7.794;2022-08-01T14:41:32;30.60;99.90
21722;DHT22;11023;48.274;7.794;2022-08-01T14:43:57;30.60;99.90
21722;DHT22;11023;48.274;7.794;2022-08-01T14:46:25;30.60;99.90
21722;DHT22;11023;48.274;7.794;2022-08-01T14:48:50;30.50;99.90
21722;DHT22;11023;48.274;7.794;2022-08-01T14:51:16;30.50;99.90
21722;DHT22;11023;48.274;7.794;2022-08-01T14:53:41;30.60;99.90
21722;DHT22;11023;48.274;7.794;2022-08-01T14:56:08;30.40;99.90
21722;DHT22;11023;48.274;7.794;2022-08-01T14:58:34;30.50;99.90
21722;DHT22;11023;48.274;7.794;2022-08-01T15:01:00;30.50;99.90
21722;DHT22;11023;48.274;7.794;2022-08-01T15:03:26;30.50;99.90
21722;DHT22;11023;48.274;7.794;2022-08-01T15:05:52;30.50;99.90
21722;DHT22;11023;48.274;7.794;2022-08-01T15:08:17;30.30;99.90
21722;DHT22;11023;48.274;7.794;2022-08-01T15:10:43;30.20;99.90
21722;DHT22;11023;48.274;7.794;2022-08-01T15:13:09;30.10;99.90
21722;DHT22;11023;48.274;7.794;2022-08-01T15:15:34;30.20;99.90
21722;DHT22;11023;48.274;7.794;2022-08-01T15:18:00;30.20;99.90
21722;DHT22;11023;48.274;7.794;2022-08-01T15:20:26;30.20;99.90
21722;DHT22;11023;48.274;7.794;2022-08-01T15:22:53;30.10;99.90
21722;DHT22;11023;48.274;7.794;2022-08-01T15:25:19;30.10;99.90
21722;DHT22;11023;48.274;7.794;2022-08-01T15:27:44;30.20;99.90
21722;DHT22;11023;48.274;7.794;2022-08-01T15:30:10;30.00;99.90
21722;DHT22;11023;48.274;7.794;2022-08-01T15:32:36;29.80;99.90
21722;DHT22;11023;48.274;7.794;2022-08-01T15:35:02;29.80;99.90
21722;DHT22;11023;48.274;7.794;2022-08-01T15:37:28;29.80;99.90
21722;DHT22;11023;48.274;7.794;2022-08-01T15:39:53;29.70;99.90
21722;DHT22;11023;48.274;7.794;2022-08-01T15:42:19;29.50;99.90
21722;DHT22;11023;48.274;7.794;2022-08-01T15:44:46;29.30;99.90
21722;DHT22;11023;48.274;7.794;2022-08-01T15:47:11;29.20;99.90
21722;DHT22;11023;48.274;7.794;2022-08-01T15:49:37;29.20;99.90
21722;DHT22;11023;48.274;7.794;2022-08-01T15:52:04;29.10;99.90
21722;DHT22;11023;48.274;7.794;2022-08-01T15:54:30;29.10;99.90
21722;DHT22;11023;48.274;7.794;2022-08-01T15:56:56;29.10;99.90
21722;DHT22;11023;48.274;7.794;2022-08-01T15:59:22;29.00;99.90
21722;DHT22;11023;48.274;7.794;2022-08-01T16:01:47;28.80;99.90
21722;DHT22;11023;48.274;7.794;2022-08-01T16:04:14;28.80;99.90
21722;DHT22;11023;48.274;7.794;2022-08-01T16:06:41;28.60;99.90
21722;DHT22;11023;48.274;7.794;2022-08-01T16:09:08;28.40;99.90
21722;DHT22;11023;48.274;7.794;2022-08-01T16:11:34;28.20;99.90
21722;DHT22;11023;48.274;7.794;2022-08-01T16:13:59;28.20;99.90
21722;DHT22;11023;48.274;7.794;2022-08-01T16:16:25;28.10;99.90
21722;DHT22;11023;48.274;7.794;2022-08-01T16:18:51;28.00;99.90
21722;DHT22;11023;48.274;7.794;2022-08-01T16:21:17;27.90;99.90
21722;DHT22;11023;48.274;7.794;2022-08-01T16:23:43;27.80;99.90
21722;DHT22;11023;48.274;7.794;2022-08-01T16:26:09;27.70;99.90
21722;DHT22;11023;48.274;7.794;2022-08-01T16:28:35;27.40;99.90